Webcam Richtung Westen

Webcam27

Webcam Richtung Norden

Webcam36

Webcam Richtung Osten

Webcam09

Wetter(Würzburg):
190100Z AUTO 34005G07KT 37KM BKN068 02/M00 Q1024
		
Tue 19.03.2019, 01:00 UTC

Sichtweite bis zu 37 km
Wind aus 340° mit 05kt, in Böen bis zu 07kt
unterbrochene Wolkendecke (5-7 Achtel) bei 6800 Fuß
Temperatur: 2 °C
Taupunkt: 0 °C
QNH: 1024 hPa
                         Heute        Morgen
                         19.03        20.03
--------------------------------------------
Beginn der Dämmerung     04:54        04:52
Sonnenaufgang            05:27        05:24
Sonnenuntergang          17:30        17:31
Ende der Dämmerung       18:02        18:03

Alle Zeiten in UTC